createdAt,value
2022-12-18T00:00:47.884Z,102484.09
2022-12-18T00:03:21.766Z,102478.81
2022-12-18T00:05:55.485Z,102486.66
2022-12-18T00:08:30.258Z,102482.75
2022-12-18T00:11:08.171Z,102471.69
2022-12-18T00:13:42.187Z,102473.78
2022-12-18T00:16:19.414Z,102470.53
2022-12-18T00:18:56.272Z,102469.34
2022-12-18T00:21:33.563Z,102478.59
2022-12-18T00:24:07.957Z,102479.53
2022-12-18T00:26:43.385Z,102480.22
2022-12-18T00:29:17.234Z,102489.28
2022-12-18T00:31:51.205Z,102493.88
2022-12-18T00:34:25.243Z,102491.13
2022-12-18T00:36:58.688Z,102500.84
2022-12-18T00:39:32.508Z,102510.56
2022-12-18T00:42:25.010Z,102494.19
2022-12-18T00:44:58.860Z,102495.56
2022-12-18T00:47:32.513Z,102490.00
2022-12-18T00:50:07.583Z,102500.69
2022-12-18T00:52:44.594Z,102499.53
2022-12-18T00:55:19.227Z,102497.44
2022-12-18T00:57:54.519Z,102496.06
2022-12-18T01:00:28.355Z,102489.84
2022-12-18T01:03:02.020Z,102495.16
2022-12-18T01:05:36.042Z,102484.75
2022-12-18T01:08:09.757Z,102490.53
2022-12-18T01:10:43.617Z,102504.41
2022-12-18T01:13:18.534Z,102507.88
2022-12-18T01:15:52.385Z,102518.25
2022-12-18T01:18:26.003Z,102517.59
2022-12-18T01:21:00.123Z,102514.81
2022-12-18T01:23:33.759Z,102510.44
2022-12-18T01:26:08.510Z,102511.13
2022-12-18T01:28:44.703Z,102503.28
2022-12-18T01:31:21.088Z,102498.22
2022-12-18T01:33:55.113Z,102509.28
2022-12-18T01:36:30.851Z,102503.75
2022-12-18T01:39:06.892Z,102503.28
2022-12-18T01:41:58.840Z,102508.16
2022-12-18T01:45:08.581Z,102515.06
2022-12-18T01:47:46.841Z,102509.50
2022-12-18T01:50:23.480Z,102508.16
2022-12-18T01:53:01.562Z,102514.13
2022-12-18T01:55:45.083Z,102524.53
2022-12-18T01:58:20.042Z,102527.09
2022-12-18T02:00:56.563Z,102523.38
2022-12-18T02:03:30.884Z,102520.38
2022-12-18T02:06:14.233Z,102517.41
2022-12-18T02:09:04.546Z,102514.13
2022-12-18T02:11:51.450Z,102519.69
2022-12-18T02:14:32.116Z,102520.38
2022-12-18T02:17:13.760Z,102521.53
2022-12-18T02:20:07.262Z,102520.63
2022-12-18T02:22:56.063Z,102517.16
2022-12-18T02:25:55.280Z,102520.84
2022-12-18T02:28:34.350Z,102538.19
2022-12-18T02:31:13.050Z,102537.25
2022-12-18T02:33:48.998Z,102535.19
2022-12-18T02:36:24.833Z,102544.41
2022-12-18T02:39:01.490Z,102547.41
2022-12-18T02:41:38.132Z,102546.50
2022-12-18T02:44:15.621Z,102542.34
2022-12-18T02:46:53.962Z,102546.97
2022-12-18T02:49:36.959Z,102545.31
2022-12-18T02:52:20.348Z,102547.63
2022-12-18T02:55:02.719Z,102549.75
2022-12-18T02:57:44.922Z,102553.88
2022-12-18T03:00:22.441Z,102555.75
2022-12-18T03:03:12.054Z,102564.97
2022-12-18T03:05:53.984Z,102562.88
2022-12-18T03:08:31.062Z,102560.56
2022-12-18T03:11:08.751Z,102555.03
2022-12-18T03:13:50.234Z,102560.34
2022-12-18T03:16:28.062Z,102552.03
2022-12-18T03:19:06.182Z,102558.97
2022-12-18T03:21:44.673Z,102553.91
2022-12-18T03:24:20.848Z,102550.91
2022-12-18T03:26:59.820Z,102554.78
2022-12-18T03:29:39.310Z,102557.81
2022-12-18T03:32:17.918Z,102558.03
2022-12-18T03:34:54.745Z,102564.72
2022-12-18T03:37:32.492Z,102558.50
2022-12-18T03:40:08.004Z,102558.72
2022-12-18T03:42:50.035Z,102557.81
2022-12-18T03:45:34.621Z,102556.66
2022-12-18T03:48:15.655Z,102553.88
2022-12-18T03:50:56.034Z,102563.81
2022-12-18T03:53:38.731Z,102546.03
2022-12-18T03:56:16.266Z,102549.03
2022-12-18T03:58:51.976Z,102553.44
2022-12-18T04:01:33.839Z,102551.34
2022-12-18T04:04:10.140Z,102543.75
2022-12-18T04:06:45.942Z,102555.03
2022-12-18T04:09:20.631Z,102551.81
2022-12-18T04:11:54.436Z,102552.50
2022-12-18T04:14:28.076Z,102547.66
2022-12-18T04:17:03.375Z,102550.63
2022-12-18T04:19:37.172Z,102555.47
2022-12-18T04:22:12.206Z,102555.00
2022-12-18T04:24:45.900Z,102550.63
2022-12-18T04:27:19.741Z,102552.25
2022-12-18T04:29:53.372Z,102552.72
2022-12-18T04:32:28.570Z,102556.63
2022-12-18T04:35:02.577Z,102562.63
2022-12-18T04:37:36.505Z,102562.16
2022-12-18T04:40:11.269Z,102551.31
2022-12-18T04:42:45.087Z,102551.09
2022-12-18T04:45:18.697Z,102547.16
2022-12-18T04:47:53.862Z,102545.78
2022-12-18T04:50:27.944Z,102547.84
2022-12-18T04:53:01.922Z,102547.16
2022-12-18T04:55:35.466Z,102557.28
2022-12-18T04:58:09.351Z,102547.84
2022-12-18T05:00:43.345Z,102558.47
2022-12-18T05:03:18.378Z,102570.22
2022-12-18T05:05:52.473Z,102567.69
2022-12-18T05:08:26.490Z,102577.16
2022-12-18T05:11:01.936Z,102579.00
2022-12-18T05:13:37.629Z,102579.44
2022-12-18T05:16:12.044Z,102577.16
2022-12-18T05:18:47.283Z,102579.69
2022-12-18T05:21:20.927Z,102581.97
2022-12-18T05:23:54.642Z,102587.50
2022-12-18T05:26:28.331Z,102577.13
2022-12-18T05:29:02.241Z,102585.91
2022-12-18T05:31:39.759Z,102580.84
2022-12-18T05:34:15.232Z,102585.91
2022-12-18T05:36:48.957Z,102583.13
2022-12-18T05:39:22.734Z,102589.34
2022-12-18T05:41:56.294Z,102592.56
2022-12-18T05:44:30.260Z,102603.66
2022-12-18T05:47:03.945Z,102608.25
2022-12-18T05:49:39.216Z,102604.56
2022-12-18T05:52:12.914Z,102603.41
2022-12-18T05:54:46.617Z,102595.81
2022-12-18T05:57:20.330Z,102605.22
2022-12-18T05:59:54.293Z,102602.44
2022-12-18T06:02:28.215Z,102599.22
2022-12-18T06:05:03.713Z,102599.91
2022-12-18T06:07:37.394Z,102595.06
2022-12-18T06:10:11.867Z,102601.97
2022-12-18T06:12:48.630Z,102608.91
2022-12-18T06:15:22.533Z,102610.28
2022-12-18T06:17:56.135Z,102617.88
2022-12-18T06:20:37.448Z,102607.75
2022-12-18T06:23:11.488Z,102617.41
2022-12-18T06:25:45.523Z,102618.34
2022-12-18T06:28:19.319Z,102618.81
2022-12-18T06:30:53.957Z,102615.56
2022-12-18T06:33:28.913Z,102614.41
2022-12-18T06:36:05.549Z,102627.78
2022-12-18T06:38:41.325Z,102618.09
2022-12-18T06:41:17.675Z,102625.47
2022-12-18T06:43:52.851Z,102627.09
2022-12-18T06:46:29.472Z,102623.88
2022-12-18T06:49:03.273Z,102625.25
2022-12-18T06:51:38.770Z,102626.16
2022-12-18T06:54:12.356Z,102628.47
2022-12-18T06:56:47.260Z,102629.59
2022-12-18T06:59:21.289Z,102631.44
2022-12-18T07:01:55.236Z,102630.28
2022-12-18T07:04:30.561Z,102627.28
2022-12-18T07:07:05.680Z,102634.66
2022-12-18T07:09:39.360Z,102621.72
2022-12-18T07:12:13.307Z,102624.00
2022-12-18T07:14:47.038Z,102635.06
2022-12-18T07:17:20.936Z,102635.06
2022-12-18T07:19:54.607Z,102642.50
2022-12-18T07:22:29.907Z,102640.44
2022-12-18T07:25:03.902Z,102645.06
2022-12-18T07:27:37.735Z,102652.22
2022-12-18T07:30:12.643Z,102646.69
2022-12-18T07:32:46.515Z,102649.91
2022-12-18T07:35:24.780Z,102655.91
2022-12-18T07:38:00.510Z,102649.44
2022-12-18T07:40:34.241Z,102652.91
2022-12-18T07:43:08.119Z,102654.53
2022-12-18T07:45:41.756Z,102655.47
2022-12-18T07:48:15.595Z,102655.44
2022-12-18T07:50:49.817Z,102665.81
2022-12-18T07:53:25.072Z,102675.03
2022-12-18T07:56:25.627Z,102670.88
2022-12-18T07:58:52.938Z,102671.81
2022-12-18T08:01:26.923Z,102671.81
2022-12-18T08:04:01.192Z,102678.47
2022-12-18T08:06:34.800Z,102671.78
2022-12-18T08:09:11.971Z,102670.63
2022-12-18T08:11:45.845Z,102672.94
2022-12-18T08:14:19.636Z,102669.03
2022-12-18T08:16:53.546Z,102660.06
2022-12-18T08:19:27.611Z,102661.22
2022-12-18T08:22:01.362Z,102663.56
2022-12-18T08:24:36.804Z,102661.28
2022-12-18T08:27:28.937Z,102667.28
2022-12-18T08:30:04.052Z,102659.91
2022-12-18T08:32:37.978Z,102661.31
2022-12-18T08:35:15.560Z,102659.00
2022-12-18T08:37:52.230Z,102652.75
2022-12-18T08:40:29.341Z,102652.56
2022-12-18T08:43:20.684Z,102659.94
2022-12-18T08:45:54.646Z,102666.66
2022-12-18T08:48:28.320Z,102671.50
2022-12-18T08:51:02.435Z,102662.53
2022-12-18T08:53:36.166Z,102663.94
2022-12-18T08:56:11.261Z,102660.69
2022-12-18T08:58:45.380Z,102660.94
2022-12-18T09:01:19.214Z,102661.41
2022-12-18T09:03:53.073Z,102655.41
2022-12-18T09:06:27.606Z,102654.50
2022-12-18T09:09:01.392Z,102663.97
2022-12-18T09:11:37.237Z,102671.59
2022-12-18T09:14:11.946Z,102673.91
2022-12-18T09:16:45.719Z,102661.94
2022-12-18T09:19:19.329Z,102666.78
2022-12-18T09:21:52.986Z,102661.69
2022-12-18T09:24:27.114Z,102665.59
2022-12-18T09:27:02.469Z,102658.44
2022-12-18T09:29:36.291Z,102666.09
2022-12-18T09:32:10.104Z,102664.22
2022-12-18T09:34:43.707Z,102667.91
2022-12-18T09:37:17.513Z,102664.22
2022-12-18T09:39:51.140Z,102672.28
2022-12-18T09:42:26.322Z,102667.41
2022-12-18T09:45:01.492Z,102662.28
2022-12-18T09:47:39.736Z,102668.75
2022-12-18T09:50:25.640Z,102673.84
2022-12-18T09:53:04.854Z,102667.84
2022-12-18T09:55:41.529Z,102670.13
2022-12-18T09:58:22.546Z,102672.38
2022-12-18T10:00:56.984Z,102678.16
2022-12-18T10:03:30.977Z,102671.91
2022-12-18T10:06:13.054Z,102669.09
2022-12-18T10:08:53.780Z,102666.53
2022-12-18T10:11:41.821Z,102674.81
2022-12-18T10:14:24.715Z,102665.75
2022-12-18T10:17:10.068Z,102662.81
2022-12-18T10:19:51.276Z,102662.06
2022-12-18T10:22:45.120Z,102661.38
2022-12-18T10:25:25.520Z,102677.56
2022-12-18T10:28:05.990Z,102676.56
2022-12-18T10:30:42.291Z,102674.75
2022-12-18T10:33:19.499Z,102680.50
2022-12-18T10:35:53.698Z,102681.66
2022-12-18T10:38:29.056Z,102683.94
2022-12-18T10:41:05.523Z,102692.25
2022-12-18T10:43:40.752Z,102683.91
2022-12-18T10:46:19.197Z,102684.38
2022-12-18T10:48:56.477Z,102675.78
2022-12-18T10:51:32.364Z,102669.72
2022-12-18T10:54:08.208Z,102665.47
2022-12-18T10:56:42.495Z,102664.69
2022-12-18T10:59:19.612Z,102656.13
2022-12-18T11:01:57.312Z,102647.97
2022-12-18T11:04:32.917Z,102648.41
2022-12-18T11:07:08.063Z,102649.34
2022-12-18T11:09:42.408Z,102654.41
2022-12-18T11:12:19.425Z,102654.56
2022-12-18T11:14:54.708Z,102661.72
2022-12-18T11:17:34.518Z,102651.25
2022-12-18T11:20:21.290Z,102652.75
2022-12-18T11:22:59.854Z,102661.00
2022-12-18T11:25:36.145Z,102662.09
2022-12-18T11:28:30.227Z,102645.22
2022-12-18T11:31:26.648Z,102636.38
2022-12-18T11:37:04.832Z,102637.34
2022-12-18T11:39:40.215Z,102640.56
2022-12-18T11:42:19.510Z,102638.00
2022-12-18T11:44:59.166Z,102632.75
2022-12-18T11:47:41.243Z,102634.81
2022-12-18T11:50:21.127Z,102640.22
2022-12-18T11:52:59.265Z,102624.00
2022-12-18T11:55:48.365Z,102624.50
2022-12-18T11:58:35.605Z,102626.28
2022-12-18T12:01:20.625Z,102615.72
2022-12-18T12:04:10.312Z,102610.63
2022-12-18T12:06:56.483Z,102608.34
2022-12-18T12:09:40.520Z,102598.28
2022-12-18T12:12:30.746Z,102588.56
2022-12-18T12:15:13.020Z,102582.19
2022-12-18T12:17:54.724Z,102580.94
2022-12-18T12:20:39.191Z,102587.88
2022-12-18T12:23:23.516Z,102582.69
2022-12-18T12:26:06.905Z,102580.25
2022-12-18T12:28:56.061Z,102574.19
2022-12-18T12:31:41.644Z,102564.28
2022-12-18T12:34:20.938Z,102566.22
2022-12-18T12:37:08.492Z,102560.81
2022-12-18T12:39:47.092Z,102551.22
2022-12-18T12:42:43.575Z,102548.78
2022-12-18T12:45:24.550Z,102533.25
2022-12-18T12:48:01.258Z,102532.44
2022-12-18T12:50:36.283Z,102528.09
2022-12-18T12:53:15.949Z,102520.44
2022-12-18T12:55:53.057Z,102524.84
2022-12-18T12:58:36.070Z,102523.03
2022-12-18T13:01:23.315Z,102523.84
2022-12-18T13:04:05.246Z,102532.00
2022-12-18T13:06:46.775Z,102525.16
2022-12-18T13:09:21.120Z,102523.84
2022-12-18T13:12:22.663Z,102510.56
2022-12-18T13:15:13.530Z,102514.34
2022-12-18T13:17:48.114Z,102518.75
2022-12-18T13:20:21.804Z,102517.22
2022-12-18T13:22:56.374Z,102521.50
2022-12-18T13:25:36.766Z,102524.38
2022-12-18T13:28:16.071Z,102512.72
2022-12-18T13:30:55.476Z,102515.75
2022-12-18T13:36:37.248Z,102517.28
2022-12-18T13:39:13.210Z,102512.31
2022-12-18T13:41:48.576Z,102505.25
2022-12-18T13:44:40.572Z,102494.69
2022-12-18T13:47:33.682Z,102501.31
2022-12-18T13:50:20.148Z,102501.00
2022-12-18T13:52:54.803Z,102504.88
2022-12-18T13:55:28.862Z,102523.91
2022-12-18T13:58:06.067Z,102514.63
2022-12-18T14:00:44.123Z,102519.53
2022-12-18T14:03:27.001Z,102518.28
2022-12-18T14:06:08.022Z,102505.38
2022-12-18T14:08:43.839Z,102501.41
2022-12-18T14:11:26.664Z,102507.94
2022-12-18T14:14:00.792Z,102506.31
2022-12-18T14:16:36.620Z,102501.00
2022-12-18T14:19:15.946Z,102502.41
2022-12-18T14:21:51.604Z,102502.69
2022-12-18T14:24:26.038Z,102508.69
2022-12-18T14:27:21.524Z,102504.88
2022-12-18T14:29:55.116Z,102508.34
2022-12-18T14:32:30.224Z,102505.59
2022-12-18T14:35:15.600Z,102497.09
2022-12-18T14:37:49.524Z,102497.03
2022-12-18T14:40:23.434Z,102493.34
2022-12-18T14:42:57.371Z,102489.47
2022-12-18T14:45:41.694Z,102495.91
2022-12-18T14:48:23.713Z,102487.63
2022-12-18T14:51:00.558Z,102493.25
2022-12-18T14:53:41.647Z,102497.44
2022-12-18T14:56:19.333Z,102482.91
2022-12-18T14:58:57.257Z,102474.50
2022-12-18T15:01:33.769Z,102470.38
2022-12-18T15:04:29.319Z,102472.22
2022-12-18T15:07:15.007Z,102463.53
2022-12-18T15:10:05.994Z,102444.75
2022-12-18T15:12:43.739Z,102448.66
2022-12-18T15:15:46.494Z,102438.88
2022-12-18T15:18:23.930Z,102441.50
2022-12-18T15:21:01.552Z,102425.84
2022-12-18T15:23:40.343Z,102432.00
2022-12-18T15:26:16.531Z,102426.03
2022-12-18T15:28:52.174Z,102425.06
2022-12-18T15:31:31.962Z,102417.44
2022-12-18T15:34:14.715Z,102412.09
2022-12-18T15:36:50.092Z,102422.75
2022-12-18T15:39:23.821Z,102419.97
2022-12-18T15:42:15.334Z,102412.25
2022-12-18T15:44:49.494Z,102402.91
2022-12-18T15:47:23.239Z,102395.88
2022-12-18T15:49:56.753Z,102396.13
2022-12-18T15:52:32.582Z,102397.25
2022-12-18T15:55:28.626Z,102399.78
2022-12-18T15:58:02.521Z,102392.97
2022-12-18T16:00:38.453Z,102388.19
2022-12-18T16:03:12.603Z,102384.13
2022-12-18T16:05:46.213Z,102385.47
2022-12-18T16:08:21.787Z,102398.84
2022-12-18T16:10:56.016Z,102389.78
2022-12-18T16:13:29.829Z,102383.31
2022-12-18T16:16:03.683Z,102375.25
2022-12-18T16:18:37.857Z,102369.88
2022-12-18T16:21:11.646Z,102380.72
2022-12-18T16:23:46.960Z,102373.28
2022-12-18T16:26:20.757Z,102371.22
2022-12-18T16:28:54.835Z,102373.34
2022-12-18T16:31:28.561Z,102361.50
2022-12-18T16:34:12.674Z,102352.94
2022-12-18T16:36:46.716Z,102344.88
2022-12-18T16:39:22.605Z,102351.19
2022-12-18T16:41:56.979Z,102351.69
2022-12-18T16:44:32.350Z,102363.09
2022-12-18T16:47:06.440Z,102351.91
2022-12-18T16:49:42.808Z,102353.22
2022-12-18T16:52:17.254Z,102351.19
2022-12-18T16:54:54.318Z,102347.41
2022-12-18T16:57:28.198Z,102343.63
2022-12-18T17:00:05.684Z,102335.56
2022-12-18T17:02:40.663Z,102354.63
2022-12-18T17:05:14.762Z,102342.50
2022-12-18T17:07:48.474Z,102338.53
2022-12-18T17:10:23.754Z,102332.09
2022-12-18T17:12:57.523Z,102333.53
2022-12-18T17:15:31.572Z,102332.94
2022-12-18T17:18:05.551Z,102328.53
2022-12-18T17:20:39.615Z,102322.94
2022-12-18T17:23:13.701Z,102316.41
2022-12-18T17:25:48.926Z,102324.56
2022-12-18T17:28:22.918Z,102330.69
2022-12-18T17:30:57.685Z,102318.16
2022-12-18T17:33:31.505Z,102319.88
2022-12-18T17:36:06.073Z,102320.81
2022-12-18T17:38:40.083Z,102316.31
2022-12-18T17:41:15.394Z,102310.31
2022-12-18T17:43:52.826Z,102312.06
2022-12-18T17:46:28.166Z,102311.78
2022-12-18T17:49:03.570Z,102295.22
2022-12-18T17:51:37.360Z,102278.72
2022-12-18T17:54:10.963Z,102268.78
2022-12-18T17:56:46.296Z,102270.16
2022-12-18T17:59:19.998Z,102269.03
2022-12-18T18:01:53.943Z,102265.69
2022-12-18T18:04:27.697Z,102247.81
2022-12-18T18:07:01.557Z,102244.72
2022-12-18T18:09:35.272Z,102229.38
2022-12-18T18:12:28.259Z,102230.69
2022-12-18T18:15:02.042Z,102232.84
2022-12-18T18:17:36.197Z,102228.66
2022-12-18T18:20:10.901Z,102228.72
2022-12-18T18:22:45.277Z,102241.00
2022-12-18T18:25:19.057Z,102234.88
2022-12-18T18:27:54.963Z,102239.47
2022-12-18T18:30:28.681Z,102219.16
2022-12-18T18:33:05.501Z,102214.16
2022-12-18T18:35:59.355Z,102211.81
2022-12-18T18:38:33.276Z,102212.22
2022-12-18T18:41:07.851Z,102216.00
2022-12-18T18:43:43.375Z,102210.50
2022-12-18T18:46:17.740Z,102205.88
2022-12-18T18:48:51.871Z,102198.03
2022-12-18T18:51:28.796Z,102198.03
2022-12-18T18:54:05.593Z,102190.38
2022-12-18T18:57:18.736Z,102176.31
2022-12-18T18:59:34.803Z,102177.84
2022-12-18T19:02:12.465Z,102171.75
2022-12-18T19:04:47.096Z,102161.81
2022-12-18T19:07:30.571Z,102166.19
2022-12-18T19:10:05.760Z,102166.00
2022-12-18T19:12:56.972Z,102156.31
2022-12-18T19:15:32.150Z,102146.72
2022-12-18T19:18:06.154Z,102141.63
2022-12-18T19:20:40.100Z,102139.06
2022-12-18T19:23:13.778Z,102124.00
2022-12-18T19:25:47.489Z,102115.63
2022-12-18T19:28:25.918Z,102116.44
2022-12-18T19:31:03.331Z,102109.50
2022-12-18T19:33:43.588Z,102117.53
2022-12-18T19:36:21.497Z,102121.31
2022-12-18T19:38:58.375Z,102119.09
2022-12-18T19:41:33.921Z,102114.06
2022-12-18T19:44:09.032Z,102114.06
2022-12-18T19:46:45.998Z,102108.16
2022-12-18T19:49:19.638Z,102104.72
2022-12-18T19:51:53.477Z,102088.69
2022-12-18T19:54:27.199Z,102086.66
2022-12-18T19:57:01.091Z,102101.63
2022-12-18T19:59:34.942Z,102074.81
2022-12-18T20:02:14.748Z,102069.28
2022-12-18T20:04:48.920Z,102069.59
2022-12-18T20:07:22.695Z,102071.44
2022-12-18T20:10:02.741Z,102071.03
2022-12-18T20:12:42.644Z,102066.25
2022-12-18T20:15:16.371Z,102050.88
2022-12-18T20:17:52.527Z,102058.88
2022-12-18T20:20:26.311Z,102064.69
2022-12-18T20:23:01.165Z,102058.16
2022-12-18T20:25:34.761Z,102051.81
2022-12-18T20:28:08.547Z,102028.13
2022-12-18T20:30:42.115Z,102043.09
2022-12-18T20:33:17.667Z,102032.00
2022-12-18T20:35:51.179Z,102036.38
2022-12-18T20:38:25.614Z,102035.16
2022-12-18T20:41:02.339Z,102026.78
2022-12-18T20:43:36.109Z,102023.31
2022-12-18T20:46:11.650Z,102016.16
2022-12-18T20:48:48.701Z,102017.50
2022-12-18T20:51:22.437Z,102019.72
2022-12-18T20:53:56.187Z,102008.00
2022-12-18T20:56:31.017Z,102005.28
2022-12-18T20:59:04.842Z,102001.66
2022-12-18T21:01:40.052Z,102004.09
2022-12-18T21:04:22.142Z,102002.97
2022-12-18T21:07:02.117Z,102002.84
2022-12-18T21:09:38.131Z,101982.22
2022-12-18T21:12:45.348Z,101966.53
2022-12-18T21:15:28.330Z,101943.94
2022-12-18T21:18:02.559Z,101953.06
2022-12-18T21:20:37.759Z,101939.03
2022-12-18T21:23:16.364Z,101940.22
2022-12-18T21:25:56.146Z,101943.22
2022-12-18T21:28:30.067Z,101949.38
2022-12-18T21:31:07.569Z,101972.50
2022-12-18T21:33:44.670Z,102014.44
2022-12-18T21:36:21.339Z,102023.34
2022-12-18T21:38:55.912Z,102021.91
2022-12-18T21:41:48.096Z,102033.06
2022-12-18T21:44:21.774Z,102042.03
2022-12-18T21:47:02.406Z,102057.28
2022-12-18T21:49:39.582Z,102038.50
2022-12-18T21:52:15.072Z,102055.84
2022-12-18T21:54:48.601Z,102006.09
2022-12-18T21:57:22.407Z,101993.81
2022-12-18T21:59:56.084Z,101986.25
2022-12-18T22:02:30.157Z,101990.22
2022-12-18T22:05:04.201Z,101979.28
2022-12-18T22:07:39.345Z,101982.94
2022-12-18T22:10:12.965Z,101990.41
2022-12-18T22:12:48.596Z,101995.50
2022-12-18T22:15:22.542Z,102003.38
2022-12-18T22:17:59.722Z,101988.25
2022-12-18T22:20:34.409Z,101978.50
2022-12-18T22:23:10.518Z,101985.84
2022-12-18T22:25:44.169Z,101970.19
2022-12-18T22:28:35.607Z,101962.53
2022-12-18T22:31:09.707Z,101962.88
2022-12-18T22:33:43.600Z,101963.06
2022-12-18T22:36:18.897Z,101956.91
2022-12-18T22:38:56.435Z,101947.94
2022-12-18T22:41:30.067Z,101943.22
2022-12-18T22:44:06.528Z,101945.06
2022-12-18T22:46:45.077Z,101941.78
2022-12-18T22:49:21.780Z,101947.28
2022-12-18T22:51:56.162Z,101942.38
2022-12-18T22:54:31.282Z,101923.19
2022-12-18T22:57:04.966Z,101916.66
2022-12-18T22:59:39.075Z,101905.41
2022-12-18T23:02:12.737Z,101904.41
2022-12-18T23:04:47.644Z,101899.59
2022-12-18T23:07:21.487Z,101893.75
2022-12-18T23:09:59.650Z,101880.09
2022-12-18T23:12:37.443Z,101870.06
2022-12-18T23:15:12.217Z,101868.34
2022-12-18T23:17:47.003Z,101862.03
2022-12-18T23:20:20.801Z,101860.56
2022-12-18T23:22:54.468Z,101857.09
2022-12-18T23:25:29.700Z,101837.72
2022-12-18T23:28:03.272Z,101849.06
2022-12-18T23:30:37.164Z,101842.53
2022-12-18T23:33:10.846Z,101833.34
2022-12-18T23:35:44.890Z,101839.16
2022-12-18T23:38:18.429Z,101835.41
2022-12-18T23:40:56.321Z,101832.84
2022-12-18T23:43:30.436Z,101836.44
2022-12-18T23:46:04.499Z,101832.84
2022-12-18T23:48:38.084Z,101834.69
2022-12-18T23:51:13.481Z,101827.06
2022-12-18T23:53:47.287Z,101822.28
2022-12-18T23:56:22.931Z,101823.94
2022-12-18T23:58:56.962Z,101830.13
